This demonstration page uses our WeatherBlox Daily Observations layout. Learn more.

38.89511, -77.03637

Hourly Observations for March 25, 2015

Temp ( °F °C ) Dew Point ( °F °C ) Humidity (%) Winds ( mph kmh ) Pressure ( in mb ) Visibility ( mi km ) Precip ( " mm )
12:52 am 00:52 Mostly Cloudy 38 3.3 22 -5.6 52 52 E 5 7 30.4 1030 10 16.0934 0 0
1:52 am 01:52 Mostly Cloudy 38 3.3 22 -5.6 52 52 ESE 5 7 30.39 1029 10 16.0934 0 0
2:52 am 02:52 Partly Cloudy 38 3.3 23 -5 55 55 Calm 30.4 1029 10 16.0934 0 0
3:52 am 03:52 Partly Cloudy 36 2.2 24 -4.4 62 62 Calm 30.4 1030 10 16.0934 0 0
4:52 am 04:52 Partly Cloudy 36 2.2 25 -3.9 64 64 Calm 30.39 1029 10 16.0934 0 0
5:52 am 05:52 Partly Cloudy 35 1.7 26 -3.3 70 70 Calm 30.38 1029 10 16.0934 0 0
6:52 am 06:52 Cloudy 37 2.8 27 -2.8 67 67 ESE 3 6 30.4 1029 10 16.0934 0 0
7:52 am 07:52 Cloudy 38 3.3 26 -3.3 62 62 Calm 30.4 1029 10 16.0934 0 0
10:52 am 10:52 Cloudy 41 5 26 -3.3 55 55 ESE 7 11 30.39 1029 10 16.0934 0 0.0254
11:52 am 11:52 Cloudy 43 6.1 26 -3.3 51 51 VRB 3 6 30.38 1029 10 16.0934 0 0.0254
12:52 pm 12:52 Cloudy 45 7.2 27 -2.8 49 49 S 6 9 30.36 1028 10 16.0934 0 0
1:52 pm 13:52 Cloudy 49 9.4 28 -2.2 44 44 SE 3 6 30.31 1027 10 16.0934 0 0
2:52 pm 14:52 Mostly Cloudy 52 11.1 29 -1.7 41 41 S 7 11 30.28 1025 10 16.0934 0 0
3:52 pm 15:52 Cloudy 54 12.2 32 0 43 43 S 9 15 30.24 1024 10 16.0934 0 0
4:52 pm 16:52 Cloudy 54 12.2 35 1.7 49 49 S 8 13 30.22 1023 10 16.0934 0 0
5:52 pm 17:52 Cloudy 52 11.1 39 3.9 61 61 S 10 17 30.22 1023 10 16.0934 0 0.0254
6:52 pm 18:52 Cloudy 51 10.6 39 3.9 64 64 S 6 9 30.21 1023 10 16.0934 0 0
7:52 pm 19:52 Cloudy 51 10.6 39 3.9 64 64 S 5 7 30.19 1022 10 16.0934 0 0
8:52 pm 20:52 Cloudy 50 10 38 3.3 63 63 S 7 11 30.18 1022 10 16.0934 0 0
9:52 pm 21:52 Mostly Cloudy 51 10.6 37 2.8 59 59 S 5 7 30.19 1022 10 16.0934 0 0
10:52 pm 22:52 Cloudy 50 10 39 3.9 66 66 S 5 7 30.17 1022 10 16.0934 0 0
11:52 pm 23:52 Mostly Cloudy 50 10 38 3.3 63 63 S 8 13 30.15 1021 10 16.0934 0 0

Powered by AerisWeather